Time;durP1;ratioP1;P1;durP2;ratioP2;P2;SDS_P1;SDS_P2;PMS_P1;PMS_P2;Temp;Humidity;BMP_temperature;BMP_pressure;BME280_temperature;BME280_humidity;BME280_pressure;Samples;Min_cycle;Max_cycle;Signal;HPM_P1;HPM_P2
2022/12/07 00:01:45;;;;;;;26.15;14.85;;;;;;;2.82;100.00;100499.03;6458599;22;20030;-77
2022/12/07 00:04:18;;;;;;;27.42;14.80;;;;;;;2.88;100.00;100492.97;6485796;22;20010;-76
2022/12/07 00:06:52;;;;;;;29.90;15.52;;;;;;;2.99;100.00;100486.03;6497015;22;20427;-77
2022/12/07 00:09:22;;;;;;;30.73;16.27;;;;;;;2.98;100.00;100489.44;6495625;22;20004;-77
2022/12/07 00:11:53;;;;;;;26.67;14.73;;;;;;;3.04;100.00;100481.69;6496500;22;20031;-76
2022/12/07 00:14:23;;;;;;;29.48;16.10;;;;;;;3.03;100.00;100478.22;6485308;22;20048;-76
2022/12/07 00:16:53;;;;;;;27.40;16.10;;;;;;;3.03;100.00;100470.47;6495537;22;20394;-78
2022/12/07 00:19:23;;;;;;;25.90;15.57;;;;;;;3.08;100.00;100478.19;6495746;22;20008;-77
2022/12/07 00:21:54;;;;;;;25.92;16.08;;;;;;;3.12;100.00;100466.97;6495575;22;20095;-77
2022/12/07 00:24:24;;;;;;;28.55;16.08;;;;;;;3.22;100.00;100468.63;6484800;22;20042;-77
2022/12/07 00:26:54;;;;;;;27.33;15.75;;;;;;;3.22;100.00;100466.91;6493844;22;20069;-78
2022/12/07 00:29:25;;;;;;;26.83;15.65;;;;;;;3.31;100.00;100460.81;6495446;22;20007;-77
2022/12/07 00:31:55;;;;;;;26.98;15.50;;;;;;;3.35;100.00;100454.75;6496307;22;20472;-77
2022/12/07 00:34:25;;;;;;;29.83;16.50;;;;;;;3.30;100.00;100466.84;6457733;22;20090;-77
2022/12/07 00:36:55;;;;;;;28.48;16.80;;;;;;;3.33;100.00;100453.94;6494862;22;19999;-77
2022/12/07 00:39:26;;;;;;;29.40;16.27;;;;;;;3.46;100.00;100458.09;6495696;22;20307;-76
2022/12/07 00:41:56;;;;;;;27.20;15.82;;;;;;;3.53;100.00;100454.59;6495595;22;20339;-77
2022/12/07 00:44:26;;;;;;;28.27;15.98;;;;;;;3.41;100.00;100459.88;6485256;22;20003;-77
2022/12/07 00:46:57;;;;;;;27.48;17.10;;;;;;;3.42;100.00;100453.81;6494227;22;20035;-77
2022/12/07 00:49:27;;;;;;;30.42;16.60;;;;;;;3.45;100.00;100451.22;6496183;22;20018;-78
2022/12/07 00:51:57;;;;;;;32.25;16.80;;;;;;;3.45;100.00;100446.91;6496795;22;20010;-77
2022/12/07 00:54:29;;;;;;;35.88;18.08;;;;;;;3.53;100.00;100436.50;6485625;22;20032;-77
2022/12/07 00:56:59;;;;;;;29.00;16.27;;;;;;;3.50;100.00;100439.13;6495116;22;20003;-76
2022/12/07 00:59:29;;;;;;;31.02;16.85;;;;;;;3.57;100.00;100430.44;6485396;22;19999;-77
2022/12/07 01:02:00;;;;;;;29.63;17.25;;;;;;;3.54;100.00;100435.66;6458620;22;20052;-77
2022/12/07 01:04:33;;;;;;;29.30;16.90;;;;;;;3.55;100.00;100442.53;6495322;22;20046;-77
2022/12/07 01:07:03;;;;;;;33.85;17.45;;;;;;;3.44;100.00;100429.72;6495838;22;20034;-78
2022/12/07 01:09:34;;;;;;;33.33;17.60;;;;;;;3.44;100.00;100434.88;6485632;22;20008;-77
2022/12/07 01:12:05;;;;;;;30.48;17.75;;;;;;;3.52;100.00;100432.22;6496049;22;20007;-77
2022/12/07 01:14:35;;;;;;;35.05;18.67;;;;;;;3.54;100.00;100430.47;6484152;22;20706;-77
2022/12/07 01:17:05;;;;;;;39.40;19.67;;;;;;;3.54;100.00;100435.66;6484393;22;20004;-76
2022/12/07 01:19:35;;;;;;;38.28;19.42;;;;;;;3.58;100.00;100421.81;6457127;22;20050;-77
2022/12/07 01:22:06;;;;;;;37.00;19.60;;;;;;;3.55;100.00;100424.44;6485352;22;20054;-77
2022/12/07 01:24:36;;;;;;;37.45;19.65;;;;;;;3.51;100.00;100422.75;6494653;22;20111;-77
2022/12/07 01:27:06;;;;;;;42.00;20.10;;;;;;;3.53;100.00;100413.28;6495256;22;20083;-77
2022/12/07 01:29:37;;;;;;;38.22;19.65;;;;;;;3.49;100.00;100419.31;6495684;22;20056;-77
2022/12/07 01:32:07;;;;;;;42.72;20.35;;;;;;;3.65;100.00;100419.16;6496011;22;20341;-77
2022/12/07 01:34:38;;;;;;;38.05;19.95;;;;;;;3.62;100.00;100419.19;6495805;22;20150;-77
2022/12/07 01:37:08;;;;;;;35.95;19.77;;;;;;;3.63;100.00;100411.41;6494333;22;20431;-77
2022/12/07 01:39:39;;;;;;;41.13;21.02;;;;;;;3.60;100.00;100406.28;6456979;22;20475;-77
2022/12/07 01:42:10;;;;;;;36.88;19.77;;;;;;;3.63;100.00;100403.66;6483583;22;20449;-77
2022/12/07 01:45:18;;;;;;;37.03;19.30;;;;;;;3.62;100.00;100396.78;6451854;22;20031;-77
2022/12/07 01:47:55;;;;;;;38.60;20.27;;;;;;;3.60;100.00;100395.09;6456026;22;20000;-76
2022/12/07 01:50:27;;;;;;;39.55;20.02;;;;;;;3.57;100.00;100392.53;6459792;22;20004;-76
2022/12/07 01:53:01;;;;;;;40.28;21.88;;;;;;;3.64;100.00;100395.03;6487338;22;20010;-77
2022/12/07 01:55:32;;;;;;;40.70;20.23;;;;;;;3.69;100.00;100390.69;6486329;22;20225;-78
2022/12/07 01:58:03;;;;;;;41.65;21.20;;;;;;;3.72;100.00;100392.38;6496378;22;20007;-76
2022/12/07 02:00:34;;;;;;;37.22;20.50;;;;;;;3.71;100.00;100393.25;6495925;22;20431;-77
2022/12/07 02:03:31;;;;;;;38.70;20.33;;;;;;;3.68;100.00;100385.53;6496136;22;20003;-77
2022/12/07 02:06:02;;;;;;;38.55;19.48;;;;;;;3.59;100.00;100386.50;6494441;22;20320;-77
2022/12/07 02:08:34;;;;;;;41.70;20.15;;;;;;;3.69;100.00;100380.34;6485030;22;20000;-76
2022/12/07 02:11:07;;;;;;;37.60;19.60;;;;;;;3.69;100.00;100374.31;6496035;22;20083;-76
2022/12/07 02:13:41;;;;;;;37.40;19.77;;;;;;;3.71;100.00;100378.59;6495543;22;20000;-77
2022/12/07 02:16:27;;;;;;;38.95;19.48;;;;;;;3.68;100.00;100372.63;6493956;22;20027;-77
2022/12/07 02:19:03;;;;;;;;;;;;;;;3.72;100.00;100372.56;6496596;22;20566;-76
2022/12/07 02:21:58;;;;;;;32.83;18.48;;;;;;;3.77;100.00;100372.53;6457673;22;19922;-77
2022/12/07 02:24:35;;;;;;;35.17;18.90;;;;;;;3.83;100.00;100370.72;6457441;22;20090;-77
2022/12/07 02:27:14;;;;;;;35.78;19.20;;;;;;;3.76;100.00;100363.91;6495335;22;20007;-76
2022/12/07 02:29:53;;;;;;;35.38;19.27;;;;;;;3.72;100.00;100363.94;6485487;22;20035;-78
2022/12/07 02:32:37;;;;;;;33.35;18.17;;;;;;;3.80;100.00;100362.97;6495833;22;20007;-76
2022/12/07 02:35:16;;;;;;;31.67;18.15;;;;;;;3.80;100.00;100359.56;6457078;22;20008;-77
2022/12/07 02:38:07;;;;;;;33.38;17.20;;;;;;;3.74;100.00;100363.06;6494582;22;20000;-77
2022/12/07 02:40:47;;;;;;;33.80;18.17;;;;;;;3.75;100.00;100359.59;6495475;22;20032;-77
2022/12/07 02:43:25;;;;;;;31.60;17.15;;;;;;;3.73;100.00;100358.78;6495607;22;20007;-77
2022/12/07 02:46:02;;;;;;;33.97;18.45;;;;;;;3.77;100.00;100352.69;6494959;22;19996;-77
2022/12/07 02:48:35;;;;;;;33.60;18.08;;;;;;;3.73;100.00;100350.16;6494616;22;19999;-77
2022/12/07 02:51:05;;;;;;;33.80;18.90;;;;;;;3.76;100.00;100350.97;6485224;22;20011;-77
2022/12/07 02:53:41;;;;;;;30.85;17.55;;;;;;;3.76;100.00;100347.56;6457534;22;20003;-77
2022/12/07 02:59:13;;;;;;;32.72;17.05;;;;;;;3.85;100.00;100340.53;5287854;27;20524;-78
2022/12/07 03:01:46;;;;;;;36.15;18.13;;;;;;;3.96;100.00;100343.00;5281134;28;20035;-77
2022/12/07 03:04:55;;;;;;;29.58;17.88;;;;;;;3.93;100.00;100338.69;5286007;27;20710;-78
2022/12/07 03:07:53;;;;;;;29.33;16.73;;;;;;;3.86;100.00;100341.38;5286574;28;20471;-78
2022/12/07 03:10:32;;;;;;;32.45;17.10;;;;;;;3.91;100.00;100329.25;5284194;28;20046;-77
2022/12/07 03:13:34;;;;;;;30.50;17.42;;;;;;;3.93;100.00;100336.13;5287798;28;20031;-77
2022/12/07 03:16:08;;;;;;;35.00;18.10;;;;;;;3.96;100.00;100327.47;5283366;28;20234;-78
2022/12/07 03:18:46;;;;;;;31.27;17.05;;;;;;;4.04;100.00;100323.91;5276871;28;20030;-78
2022/12/07 03:21:25;;;;;;;29.73;17.20;;;;;;;4.00;100.00;100326.56;5285268;27;20035;-78
2022/12/07 03:23:58;;;;;;;32.55;16.88;;;;;;;3.99;100.00;100324.84;5283277;28;20039;-77
2022/12/07 03:26:34;;;;;;;27.63;16.35;;;;;;;4.19;100.00;100328.00;5288326;28;20040;-78
2022/12/07 03:29:08;;;;;;;27.70;17.25;;;;;;;4.14;100.00;100322.91;5292289;28;20027;-77
2022/12/07 03:31:44;;;;;;;27.42;16.52;;;;;;;4.21;100.00;100328.84;5284645;28;20058;-77
2022/12/07 03:34:17;;;;;;;;;;;;;;;4.10;100.00;100321.25;5282059;28;20027;-77
2022/12/07 03:36:58;;;;;;;28.42;16.27;;;;;;;4.10;100.00;100326.41;5290833;28;19912;-77
2022/12/07 03:39:58;;;;;;;27.30;16.40;;;;;;;4.09;100.00;100321.28;5290152;28;20035;-77
2022/12/07 03:42:30;;;;;;;27.48;16.52;;;;;;;4.21;100.00;100324.53;5287774;28;20380;-77
2022/12/07 03:45:03;;;;;;;27.08;16.00;;;;;;;4.20;100.00;100321.97;5283287;28;20315;-77
2022/12/07 03:47:40;;;;;;;27.73;17.20;;;;;;;4.22;100.00;100315.91;5282931;28;20016;-76
2022/12/07 03:50:18;;;;;;;27.77;17.35;;;;;;;4.29;100.00;100309.75;5279288;28;20031;-77
2022/12/07 03:52:56;;;;;;;29.50;17.10;;;;;;;4.27;100.00;100315.84;5283788;28;20072;-78
2022/12/07 03:55:30;;;;;;;29.50;16.73;;;;;;;4.26;100.00;100308.97;5284436;28;20016;-75
2022/12/07 03:58:06;;;;;;;25.05;16.05;;;;;;;4.20;100.00;100311.63;5290255;28;20023;-78
2022/12/07 04:00:36;;;;;;;29.80;17.67;;;;;;;4.23;100.00;100312.44;5288930;27;20032;-77
2022/12/07 04:03:07;;;;;;;28.23;16.67;;;;;;;4.24;100.00;100314.16;5285172;28;20030;-77
2022/12/07 04:05:38;;;;;;;27.80;16.17;;;;;;;4.12;100.00;100309.16;5284867;28;20076;-77
2022/12/07 04:08:09;;;;;;;27.17;16.38;;;;;;;4.07;100.00;100310.94;5280700;28;20061;-77
2022/12/07 04:10:39;;;;;;;27.58;16.58;;;;;;;4.06;100.00;100321.28;5267631;28;20481;-77
2022/12/07 04:13:10;;;;;;;29.65;16.63;;;;;;;4.02;100.00;100325.69;5270566;27;20480;-76
2022/12/07 04:15:40;;;;;;;28.23;16.20;;;;;;;4.09;100.00;100323.88;5267690;28;20043;-78
2022/12/07 04:18:10;;;;;;;30.50;16.48;;;;;;;4.09;100.00;100316.94;5265384;28;20055;-77
2022/12/07 04:20:41;;;;;;;27.38;15.23;;;;;;;4.23;100.00;100320.19;5277970;27;20043;-77
2022/12/07 04:23:11;;;;;;;25.65;15.63;;;;;;;4.25;100.00;100322.75;5269101;28;20051;-76
2022/12/07 04:25:41;;;;;;;27.30;14.93;;;;;;;4.24;100.00;100314.16;5273739;28;20070;-78
2022/12/07 04:28:12;;;;;;;25.13;14.85;;;;;;;4.15;100.00;100316.84;5274451;28;20537;-77
2022/12/07 04:30:42;;;;;;;25.55;13.98;;;;;;;4.24;100.00;100323.63;5277612;28;20040;-77
2022/12/07 04:33:12;;;;;;;25.67;13.93;;;;;;;4.24;100.00;100319.31;5269221;28;20107;-76
2022/12/07 04:35:43;;;;;;;26.38;14.73;;;;;;;4.25;100.00;100310.69;5271049;28;20028;-76
2022/12/07 04:38:13;;;;;;;29.15;13.90;;;;;;;4.32;100.00;100311.47;5277177;28;20530;-78
2022/12/07 04:40:44;;;;;;;24.08;13.80;;;;;;;4.24;100.00;100311.56;5272282;28;20396;-77
2022/12/07 04:43:14;;;;;;;24.27;13.65;;;;;;;4.31;100.00;100315.75;5271284;28;20036;-75
2022/12/07 04:45:48;;;;;;;23.65;13.45;;;;;;;4.33;100.00;100303.66;5270825;28;20058;-76
2022/12/07 04:48:18;;;;;;;26.17;13.20;;;;;;;4.23;100.00;100312.44;5270973;28;20015;-77
2022/12/07 04:50:52;;;;;;;26.08;14.02;;;;;;;4.32;100.00;100304.53;5273135;28;20115;-77
2022/12/07 04:53:22;;;;;;;24.02;13.13;;;;;;;4.35;100.00;100309.69;5269637;28;20028;-76
2022/12/07 04:55:52;;;;;;;24.02;13.27;;;;;;;4.27;100.00;100305.50;5269430;28;20046;-77
2022/12/07 04:58:22;;;;;;;26.35;13.35;;;;;;;4.20;100.00;100299.56;5266734;28;20431;-77
2022/12/07 05:00:55;;;;;;;25.98;13.80;;;;;;;4.19;100.00;100300.44;5275091;28;20043;-77
2022/12/07 05:03:26;;;;;;;24.38;14.07;;;;;;;4.23;100.00;100299.50;5265717;28;20523;-76
2022/12/07 05:05:56;;;;;;;27.67;13.93;;;;;;;4.22;100.00;100302.97;5267142;28;20035;-77
2022/12/07 05:08:26;;;;;;;26.27;14.30;;;;;;;4.26;100.00;100302.06;5275398;28;20355;-78
2022/12/07 05:10:57;;;;;;;23.00;13.43;;;;;;;4.21;100.00;100309.03;5275083;28;20207;-78
2022/12/07 05:13:27;;;;;;;23.70;13.32;;;;;;;4.28;100.00;100308.03;5263930;28;20024;-76
2022/12/07 05:15:57;;;;;;;26.40;14.63;;;;;;;4.25;100.00;100315.84;5265326;28;20028;-77
2022/12/07 05:18:28;;;;;;;28.83;13.60;;;;;;;4.36;100.00;100318.28;5265246;28;20031;-77
2022/12/07 05:20:58;;;;;;;22.98;13.10;;;;;;;4.26;100.00;100312.41;5271164;28;20633;-77
2022/12/07 05:23:28;;;;;;;24.45;12.48;;;;;;;4.29;100.00;100308.91;5267574;28;20113;-77
2022/12/07 05:25:59;;;;;;;25.20;12.70;;;;;;;4.15;100.00;100309.09;5268135;28;20485;-77
2022/12/07 05:28:29;;;;;;;23.58;12.10;;;;;;;4.18;100.00;100310.78;5273023;28;20031;-77
2022/12/07 05:30:59;;;;;;;25.05;12.15;;;;;;;4.29;100.00;100306.34;5274366;28;20024;-77
2022/12/07 05:33:30;;;;;;;21.05;11.43;;;;;;;4.17;100.00;100309.09;5267252;28;20035;-77
2022/12/07 05:36:05;;;;;;;21.08;11.75;;;;;;;4.01;100.00;100310.16;5271036;28;20028;-76
2022/12/07 05:38:35;;;;;;;24.98;12.57;;;;;;;4.05;100.00;100317.00;5274150;28;20027;-77
2022/12/07 05:41:07;;;;;;;21.45;12.10;;;;;;;4.10;100.00;100321.25;5273426;28;20389;-78
2022/12/07 05:43:37;;;;;;;24.58;12.25;;;;;;;4.07;100.00;100310.94;5264777;28;20024;-78
2022/12/07 05:46:08;;;;;;;25.40;12.25;;;;;;;4.00;100.00;100309.34;5266772;28;20047;-77
2022/12/07 05:48:38;;;;;;;20.90;11.18;;;;;;;4.07;100.00;100307.50;5271708;28;20062;-76
2022/12/07 05:51:08;;;;;;;22.08;11.18;;;;;;;4.06;100.00;100303.19;5274788;28;20473;-77
2022/12/07 05:53:38;;;;;;;20.55;11.25;;;;;;;4.05;100.00;100298.91;5265706;28;20027;-77
2022/12/07 05:56:09;;;;;;;22.58;11.48;;;;;;;4.07;100.00;100307.50;5267293;28;20016;-76
2022/12/07 06:01:28;;;;;;;19.80;10.82;;;;;;;4.04;100.00;100308.41;5266257;28;20085;-78
2022/12/07 06:03:59;;;;;;;22.75;11.30;;;;;;;4.04;100.00;100304.97;5266152;28;20500;-78
2022/12/07 06:06:29;;;;;;;23.55;11.65;;;;;;;4.01;100.00;100305.88;5272690;28;20078;-78
2022/12/07 06:08:59;;;;;;;22.63;11.63;;;;;;;4.00;100.00;100308.47;5273419;28;20023;-77
2022/12/07 06:14:19;;;;;;;21.52;11.88;;;;;;;3.96;100.00;100296.47;5266083;28;20397;-78
2022/12/07 06:16:49;;;;;;;22.98;11.95;;;;;;;4.16;100.00;100308.22;5265913;28;20020;-76
2022/12/07 06:19:20;;;;;;;21.30;10.57;;;;;;;4.13;100.00;100307.44;5272820;28;20055;-78
2022/12/07 06:21:50;;;;;;;20.45;9.90;;;;;;;4.03;100.00;100309.28;5272457;28;20027;-77
2022/12/07 06:24:21;;;;;;;18.42;8.60;;;;;;;4.04;100.00;100316.16;5264721;28;20082;-77
2022/12/07 06:26:51;;;;;;;16.55;7.88;;;;;;;3.98;100.00;100311.06;5271434;28;20166;-77
2022/12/07 06:29:22;;;;;;;13.75;6.43;;;;;;;3.74;100.00;100326.03;5271949;28;20024;-76
2022/12/07 06:31:52;;;;;;;10.75;5.82;;;;;;;3.73;100.00;100320.00;5256872;28;20182;-77
2022/12/07 06:34:24;;;;;;;10.00;5.07;;;;;;;3.66;100.00;100314.94;5265622;28;20147;-76
2022/12/07 06:36:54;;;;;;;8.98;3.72;;;;;;;3.62;100.00;100311.53;5272051;28;20028;-77
2022/12/07 06:39:27;;;;;;;9.38;3.78;;;;;;;3.71;100.00;100316.59;5273480;28;20031;-78
2022/12/07 06:41:57;;;;;;;6.97;3.70;;;;;;;3.73;100.00;100324.31;5270017;28;20404;-78
2022/12/07 06:44:28;;;;;;;11.40;4.95;;;;;;;3.71;100.00;100320.91;5263996;28;20027;-77
2022/12/07 06:46:58;;;;;;;9.85;5.32;;;;;;;3.76;100.00;100332.88;5267260;28;20047;-77
2022/12/07 06:49:28;;;;;;;9.50;4.90;;;;;;;3.72;100.00;100330.34;5264510;28;20597;-77
2022/12/07 06:51:59;;;;;;;9.93;5.00;;;;;;;3.74;100.00;100320.84;5271108;28;20028;-77
2022/12/07 06:54:30;;;;;;;11.43;6.05;;;;;;;3.76;100.00;100325.13;5264743;28;20058;-77
2022/12/07 06:57:00;;;;;;;13.43;6.10;;;;;;;3.64;100.00;100329.59;5258928;28;20129;-78
2022/12/07 06:59:30;;;;;;;14.52;6.38;;;;;;;3.76;100.00;100319.13;5269769;28;20039;-77
2022/12/07 07:02:00;;;;;;;10.40;6.78;;;;;;;3.83;100.00;100329.38;5270521;28;20711;-78
2022/12/07 07:04:31;;;;;;;15.05;7.13;;;;;;;3.86;100.00;100324.16;5264444;28;20273;-77
2022/12/07 07:07:01;;;;;;;12.65;7.18;;;;;;;3.92;100.00;100321.50;5275486;28;20035;-77
2022/12/07 07:09:31;;;;;;;12.68;6.85;;;;;;;3.75;100.00;100318.25;5272778;28;20042;-77
2022/12/07 07:12:02;;;;;;;14.40;7.32;;;;;;;3.87;100.00;100320.69;5270766;28;20062;-77
2022/12/07 07:14:32;;;;;;;11.85;7.70;;;;;;;3.78;100.00;100317.38;5270531;28;20192;-79
2022/12/07 07:17:03;;;;;;;15.57;8.18;;;;;;;3.80;100.00;100321.63;5265423;28;20202;-77
2022/12/07 07:19:33;;;;;;;20.75;10.35;;;;;;;3.78;100.00;100323.38;5270808;28;20032;-78
2022/12/07 07:22:03;;;;;;;26.42;11.82;;;;;;;3.79;100.00;100319.94;5272566;28;20032;-77
2022/12/07 07:24:34;;;;;;;26.17;12.18;;;;;;;3.83;100.00;100325.94;5270852;28;20036;-78
2022/12/07 07:27:04;;;;;;;31.77;14.35;;;;;;;3.88;100.00;100335.34;5271791;28;20400;-78
2022/12/07 07:29:34;;;;;;;28.70;13.95;;;;;;;3.86;100.00;100325.88;5272912;28;20031;-77
2022/12/07 07:32:05;;;;;;;31.10;13.77;;;;;;;3.99;100.00;100330.84;5266588;28;20032;-78
2022/12/07 07:34:35;;;;;;;26.88;13.90;;;;;;;3.85;100.00;100329.34;5264950;28;20020;-77
2022/12/07 07:37:05;;;;;;;27.55;13.20;;;;;;;3.80;100.00;100331.97;5270325;28;20025;-77
2022/12/07 07:39:36;;;;;;;28.45;13.73;;;;;;;3.86;100.00;100328.47;5275228;28;20405;-77
2022/12/07 07:42:07;;;;;;;29.83;13.35;;;;;;;3.99;100.00;100328.28;5270145;28;20023;-78
2022/12/07 07:44:37;;;;;;;24.50;12.82;;;;;;;3.99;100.00;100338.63;5263035;28;20024;-78
2022/12/07 07:47:08;;;;;;;25.15;13.23;;;;;;;3.94;100.00;100337.81;5270048;28;20016;-76
2022/12/07 07:49:38;;;;;;;29.55;14.07;;;;;;;4.01;100.00;100344.66;5277222;28;20032;-76
2022/12/07 07:52:08;;;;;;;26.98;14.60;;;;;;;4.05;100.00;100341.16;5273708;28;20024;-77
2022/12/07 07:54:38;;;;;;;24.00;12.88;;;;;;;4.09;100.00;100345.38;5266079;28;20032;-77
2022/12/07 07:57:09;;;;;;;30.88;14.50;;;;;;;4.11;100.00;100343.63;5268103;28;20069;-77
2022/12/07 07:59:39;;;;;;;28.42;14.65;;;;;;;4.15;100.00;100347.88;5273189;28;20476;-78
2022/12/07 08:02:14;;;;;;;28.02;13.38;;;;;;;4.06;100.00;100342.84;5272327;28;20028;-77
2022/12/07 08:04:45;;;;;;;;;;;;;;;3.93;100.00;100343.88;5268823;27;20039;-78
2022/12/07 08:07:15;;;;;;;27.52;12.43;;;;;;;4.12;100.00;100345.34;5274144;28;20041;-77
2022/12/07 08:09:46;;;;;;;29.05;13.45;;;;;;;4.03;100.00;100350.66;5274902;28;20392;-78
2022/12/07 08:12:16;;;;;;;32.03;15.00;;;;;;;4.11;100.00;100353.97;5273090;28;20024;-78
2022/12/07 08:14:47;;;;;;;26.88;13.32;;;;;;;4.10;100.00;100361.78;5267496;28;20027;-77
2022/12/07 08:17:17;;;;;;;26.33;13.43;;;;;;;4.12;100.00;100355.69;5266311;28;20024;-77
2022/12/07 08:19:47;;;;;;;27.83;13.57;;;;;;;4.12;100.00;100360.84;5275036;28;20140;-77
2022/12/07 08:22:18;;;;;;;28.30;12.65;;;;;;;4.08;100.00;100364.38;5272509;28;20477;-78
2022/12/07 08:24:49;;;;;;;25.30;12.77;;;;;;;4.08;100.00;100355.75;5267298;28;20059;-75
2022/12/07 08:27:19;;;;;;;28.30;13.32;;;;;;;4.12;100.00;100354.84;5277611;28;20043;-77
2022/12/07 08:29:49;;;;;;;28.38;14.15;;;;;;;3.99;100.00;100348.97;5275354;28;20032;-78
2022/12/07 08:32:19;;;;;;;29.52;15.18;;;;;;;4.01;100.00;100357.56;5271982;28;20419;-78
2022/12/07 08:34:52;;;;;;;28.73;12.95;;;;;;;4.12;100.00;100354.84;5264320;28;20077;-77
2022/12/07 08:37:22;;;;;;;27.20;12.52;;;;;;;4.15;100.00;100347.88;5270336;28;20423;-78
2022/12/07 08:39:52;;;;;;;38.15;17.55;;;;;;;4.16;100.00;100341.84;5268195;28;20090;-78
2022/12/07 08:42:27;;;;;;;33.65;13.60;;;;;;;4.17;100.00;100338.41;5252628;28;20476;-79
2022/12/07 08:44:57;;;;;;;25.73;11.77;;;;;;;4.12;100.00;100342.75;5273547;28;20567;-77
2022/12/07 08:47:27;;;;;;;21.58;11.40;;;;;;;4.13;100.00;100341.03;5263712;28;20115;-76
2022/12/07 08:50:03;;;;;;;26.73;12.68;;;;;;;4.06;100.00;100344.56;5266073;28;20046;-77
2022/12/07 08:52:35;;;;;;;19.45;10.90;;;;;;;4.10;100.00;100349.69;5273533;28;20673;-78
2022/12/07 08:55:06;;;;;;;26.95;12.25;;;;;;;4.06;100.00;100355.78;5276161;28;20032;-77
2022/12/07 08:57:37;;;;;;;28.63;10.75;;;;;;;4.23;100.00;100353.81;5273635;28;20031;-77
2022/12/07 09:00:08;;;;;;;23.40;11.20;;;;;;;4.15;100.00;100355.63;5271109;28;20036;-76
2022/12/07 09:02:39;;;;;;;23.63;11.85;;;;;;;4.09;100.00;100354.91;5266280;28;20028;-77
2022/12/07 09:05:09;;;;;;;21.65;11.52;;;;;;;4.20;100.00;100355.59;5268914;28;20062;-77
2022/12/07 09:07:42;;;;;;;20.80;10.27;;;;;;;4.22;100.00;100364.16;5264542;28;20020;-78
2022/12/07 09:10:18;;;;;;;31.45;14.48;;;;;;;4.16;100.00;100362.50;5249040;28;20066;-78
2022/12/07 09:12:49;;;;;;;29.98;13.52;;;;;;;4.23;100.00;100363.28;5271125;28;20028;-78
2022/12/07 09:15:19;;;;;;;31.23;14.35;;;;;;;4.16;100.00;100361.69;5269234;28;20058;-78
2022/12/07 09:17:50;;;;;;;23.90;11.93;;;;;;;4.29;100.00;100356.31;5272464;28;20024;-78
2022/12/07 09:20:20;;;;;;;25.67;11.88;;;;;;;4.28;100.00;100367.53;5268170;28;20486;-77
2022/12/07 09:22:50;;;;;;;21.58;11.50;;;;;;;4.19;100.00;100364.22;5271077;28;20028;-78
2022/12/07 09:25:21;;;;;;;24.98;11.80;;;;;;;4.19;100.00;100365.09;5275360;27;20053;-78
2022/12/07 09:27:56;;;;;;;20.02;10.80;;;;;;;4.13;100.00;100362.56;5271700;28;20031;-78
2022/12/07 09:30:27;;;;;;;21.75;10.27;;;;;;;4.26;100.00;100353.78;5271364;28;20024;-78
2022/12/07 09:32:58;;;;;;;17.73;9.13;;;;;;;4.28;100.00;100351.19;5274141;28;20034;-78
2022/12/07 09:35:28;;;;;;;22.98;12.02;;;;;;;4.20;100.00;100356.44;5272533;28;20389;-78
2022/12/07 09:37:58;;;;;;;22.50;12.75;;;;;;;4.19;100.00;100352.16;5269846;28;20512;-77
2022/12/07 09:40:29;;;;;;;21.50;10.73;;;;;;;4.28;100.00;100356.34;5266239;28;20051;-77
2022/12/07 09:42:59;;;;;;;17.33;10.20;;;;;;;4.40;100.00;100350.97;5273829;28;20104;-78
2022/12/07 09:45:34;;;;;;;21.27;10.75;;;;;;;4.25;100.00;100356.38;5267332;28;20103;-77
2022/12/07 09:48:05;;;;;;;30.10;16.73;;;;;;;4.30;100.00;100355.44;5265466;28;20575;-78
2022/12/07 09:50:36;;;;;;;30.20;15.57;;;;;;;4.37;100.00;100351.91;5272312;28;20032;-77
2022/12/07 09:53:13;;;;;;;16.45;8.00;;;;;;;4.35;100.00;100351.06;5273213;28;20035;-77
2022/12/07 09:55:44;;;;;;;16.10;7.78;;;;;;;4.39;100.00;100350.16;5265349;28;20065;-78
2022/12/07 09:58:22;;;;;;;16.17;7.63;;;;;;;4.45;100.00;100351.78;5266646;28;20557;-77
2022/12/07 10:01:09;;;;;;;13.70;7.07;;;;;;;4.51;100.00;100349.97;5269495;28;20028;-78
2022/12/07 10:03:45;;;;;;;13.32;6.95;;;;;;;4.43;100.00;100344.03;5268225;28;20019;-77
2022/12/07 10:06:15;;;;;;;14.95;7.20;;;;;;;4.36;100.00;100344.16;5272109;28;20114;-78
2022/12/07 10:08:46;;;;;;;17.00;7.78;;;;;;;4.57;100.00;100344.69;5271287;28;20111;-77
2022/12/07 10:11:16;;;;;;;12.52;8.00;;;;;;;4.54;100.00;100347.34;5270855;28;20069;-78
2022/12/07 10:13:52;;;;;;;14.13;7.30;;;;;;;4.41;100.00;100343.22;5274031;28;20039;-78
2022/12/07 10:16:38;;;;;;;14.38;7.22;;;;;;;4.38;100.00;100340.69;5265473;28;20069;-77
2022/12/07 10:19:28;;;;;;;12.27;7.38;;;;;;;4.43;100.00;100346.63;5266934;28;20173;-78
2022/12/07 10:22:02;;;;;;;15.55;7.90;;;;;;;4.46;100.00;100341.41;5269840;28;20420;-78
2022/12/07 10:24:32;;;;;;;17.52;8.10;;;;;;;4.54;100.00;100339.56;5270639;28;20039;-78
2022/12/07 10:27:03;;;;;;;17.02;8.02;;;;;;;4.63;100.00;100336.00;5273345;28;20019;-77
2022/12/07 10:29:36;;;;;;;16.77;7.60;;;;;;;4.74;100.00;100342.69;5263726;28;20116;-77
2022/12/07 10:32:16;;;;;;;14.15;6.35;;;;;;;4.78;100.00;100336.59;5267919;28;20056;-77
2022/12/07 10:34:46;;;;;;;12.88;5.70;;;;;;;4.65;100.00;100339.41;5268704;28;20038;-76
2022/12/07 10:37:20;;;;;;;10.32;5.10;;;;;;;4.58;100.00;100336.06;5272574;28;20012;-78
2022/12/07 10:39:55;;;;;;;8.82;4.85;;;;;;;4.55;100.00;100341.28;5261116;28;20036;-78
2022/12/07 10:42:31;;;;;;;10.80;4.88;;;;;;;4.75;100.00;100339.22;5264910;28;20027;-77
2022/12/07 10:45:09;;;;;;;8.77;4.57;;;;;;;4.58;100.00;100338.63;5266837;28;20032;-78
2022/12/07 10:48:03;;;;;;;13.10;4.90;;;;;;;4.65;100.00;100337.66;5261144;28;20051;-77
2022/12/07 10:51:01;;;;;;;8.82;5.30;;;;;;;4.67;100.00;100342.81;5270183;28;20106;-78
2022/12/07 10:53:50;;;;;;;12.15;5.50;;;;;;;4.62;100.00;100335.13;5272984;28;20019;-78
2022/12/07 10:56:29;;;;;;;9.77;5.80;;;;;;;4.59;100.00;100329.13;5264951;28;20055;-78
2022/12/07 10:59:14;;;;;;;10.32;4.53;;;;;;;4.59;100.00;100319.66;5265949;28;20035;-78
2022/12/07 11:02:34;;;;;;;7.07;3.65;;;;;;;4.60;100.00;100329.13;5266244;28;20508;-78
2022/12/07 11:05:23;;;;;;;8.30;4.43;;;;;;;4.66;100.00;100328.16;5257524;28;20506;-77
2022/12/07 11:08:09;;;;;;;14.38;4.20;;;;;;;4.70;100.00;100329.81;5266334;28;20027;-77
2022/12/07 11:11:06;;;;;;;13.38;2.97;;;;;;;4.72;100.00;100321.16;5257603;28;20032;-78
2022/12/07 11:13:49;;;;;;;9.57;3.20;;;;;;;4.52;100.00;100322.34;5266375;28;20027;-77
2022/12/07 11:16:28;;;;;;;8.65;3.30;;;;;;;4.72;100.00;100322.88;5267769;28;20016;-78
2022/12/07 11:19:24;;;;;;;7.05;2.60;;;;;;;4.88;100.00;100324.34;5266566;28;20026;-77
2022/12/07 11:22:03;;;;;;;10.52;2.33;;;;;;;4.79;100.00;100322.75;5273517;28;20119;-78
2022/12/07 11:25:03;;;;;;;9.52;1.85;;;;;;;4.89;100.00;100321.75;5273899;28;20024;-78
2022/12/07 11:27:49;;;;;;;7.95;2.10;;;;;;;4.86;100.00;100316.63;5275778;28;20115;-78
2022/12/07 11:30:23;;;;;;;6.05;1.83;;;;;;;4.80;100.00;100319.28;5266544;28;20228;-78
2022/12/07 11:33:04;;;;;;;8.90;2.00;;;;;;;4.85;100.00;100320.09;5272558;28;20043;-77
2022/12/07 11:35:45;;;;;;;8.07;1.70;;;;;;;4.91;100.00;100313.94;5274116;28;20536;-77
2022/12/07 11:38:18;;;;;;;10.27;1.70;;;;;;;4.81;100.00;100321.00;5268920;28;20392;-77
2022/12/07 11:40:51;;;;;;;5.78;1.52;;;;;;;4.73;100.00;100312.53;5270197;28;20035;-78
2022/12/07 11:43:26;;;;;;;8.77;1.70;;;;;;;4.76;100.00;100315.06;5268828;28;20509;-78
2022/12/07 11:46:05;;;;;;;4.70;1.25;;;;;;;4.79;100.00;100314.16;5269420;28;20058;-78
2022/12/07 11:49:08;;;;;;;6.40;1.45;;;;;;;4.91;100.00;100299.28;5269675;28;20042;-77
2022/12/07 11:51:40;;;;;;;6.32;1.40;;;;;;;5.04;100.00;100295.59;5268144;28;20036;-78